Flight Track Log - Related Links

Times and Time Zones

All times are in EDT time to prevent confusion due to time zone crossing. See the EJM77 flight status page for this flight to view local times or setup timezone preferences in your user account.

Time Position Orientation Groundspeed Altitude Reporting Facility
EDT Latitude Longitude Course Direction KTS MPH feet Rate Location/Type
Wed 05:36:01 PM 39.8667 -105.0333 153° Southeast 223 257 7,900  Level Denver TRACON
Wed 05:37:01 PM 39.8000 -105.0167 169° South 265 305 10,300 2,550 Climbing Denver TRACON
Wed 05:38:01 PM 39.7333 -105.0333 191° South 258 297 13,000 2,333 Climbing Denver TRACON
Wed 05:39:07 PM 39.6500 -105.0000 163° South 289 333 15,200 1,619 Climbing Denver TRACON
Wed 05:40:07 PM 39.5833 -104.9333 142° Southeast 330 380 16,400 1,095 Climbing Denver TRACON
Wed 05:41:00 PM 39.3244 -104.6495 153° Southeast  Level FlightAware Approximate
Wed 05:41:24 PM 39.4778 -104.8186 140° Southeast 395 455 17,700  Level Denver Center
Wed 05:42:26 PM 39.3886 -104.7272 142° Southeast 410 472 18,500 1,161 Climbing Denver Center
Wed 05:43:28 PM 39.2869 -104.6206 141° Southeast 437 503 20,100 1,597 Climbing Denver Center
Wed 05:44:30 PM 39.1936 -104.5242 141° Southeast 435 501 21,800 1,694 Climbing Denver Center
Wed 05:45:32 PM 39.0906 -104.4508 151° Southeast 424 488 23,600 1,839 Climbing Denver Center
Wed 05:46:34 PM 38.9656 -104.4117 166° South 415 478 25,600 2,081 Climbing Denver Center
Wed 05:47:36 PM 38.8650 -104.3831 168° South 406 467 27,900 2,419 Climbing Denver Center
Wed 05:48:38 PM 38.7639 -104.3461 164° South 382 440 30,600 2,177 Climbing Denver Center
Wed 05:49:40 PM 38.6714 -104.3089 163° South 354 407 32,400 1,210 Climbing Denver Center
Wed 05:50:42 PM 38.5544 -104.2592 162° South 369 425 33,100 581 Climbing Denver Center
Wed 05:51:44 PM 38.4481 -104.2144 162° South 398 458 33,600 532 Climbing Denver Center
Wed 05:52:46 PM 38.3411 -104.1483 154° Southeast 429 494 34,200 629 Climbing Denver Center
Wed 05:53:48 PM 38.2217 -104.0725 153° Southeast 440 506 34,900 629 Climbing Denver Center
Wed 05:54:50 PM 38.1136 -104.0006 152° Southeast 452 520 35,500 672 Climbing Denver Center
Wed 05:55:53 PM 37.9856 -103.9147 152° Southeast 460 529 36,300 720 Climbing Denver Center
Wed 05:56:55 PM 37.8736 -103.8397 152° Southeast 468 539 37,000 339 Climbing Denver Center
Wed 05:57:57 PM 37.7417 -103.7539 153° Southeast 473 544 37,000  Level Denver Center
Wed 05:58:59 PM 37.6269 -103.6792 153° Southeast 478 550 37,000  Level Denver Center
Wed 06:00:01 PM 37.5161 -103.5892 147° Southeast 488 562 37,000  Level Denver Center
Wed 06:01:03 PM 37.3897 -103.4808 146° Southeast 489 563 37,000 48 Level Denver Center
Wed 06:02:05 PM 37.2822 -103.3917 147° Southeast 483 556 37,100 435 Climbing Denver Center
Wed 06:03:07 PM 37.1586 -103.2881 146° Southeast 477 549 37,900 726 Climbing Denver Center
Wed 06:04:09 PM 37.0547 -103.2006 146° Southeast 472 543 38,600 532 Climbing Denver Center
Wed 06:05:11 PM 36.9347 -103.0986 146° Southeast 467 537 39,000 194 Climbing Denver Center
Wed 06:06:13 PM 36.8286 -103.0097 146° Southeast 477 549 39,000  Level Denver Center
Wed 06:07:36 PM 36.6717 -102.8650 143° Southeast 491 565 39,000  Level Albuquerque Center
Wed 06:08:38 PM 36.5689 -102.7350 135° Southeast 501 577 39,000  Level Albuquerque Center
Wed 06:09:40 PM 36.4728 -102.6156 135° Southeast 493 567 39,000  Level Albuquerque Center
Wed 06:10:42 PM 36.3742 -102.4964 136° Southeast 495 570 39,000  Level Albuquerque Center
Wed 06:11:44 PM 36.2778 -102.3742 134° Southeast 496 571 39,000  Level Albuquerque Center
Wed 06:12:46 PM 36.1792 -102.2544 136° Southeast 496 571 39,000  Level Albuquerque Center
Wed 06:13:48 PM 36.0803 -102.1347 136° Southeast 497 572 39,000  Level Albuquerque Center
Wed 06:14:50 PM 35.9619 -101.9900 135° Southeast 498 573 39,000  Level Albuquerque Center
Wed 06:15:52 PM 35.8481 -101.8956 146° Southeast 499 574 39,000  Level Albuquerque Center
Wed 06:16:54 PM 35.7281 -101.8222 154° Southeast 485 558 39,000  Level Albuquerque Center
Wed 06:17:56 PM 35.6067 -101.7464 153° Southeast 486 559 39,000  Level Albuquerque Center
Wed 06:18:58 PM 35.4886 -101.6733 153° Southeast 487 560 39,000  Level Albuquerque Center
Wed 06:20:00 PM 35.3578 -101.5986 155° Southeast 487 560 39,000  Level Albuquerque Center
Wed 06:21:02 PM 35.2308 -101.5372 158° South 488 562 39,000  Level Albuquerque Center
Wed 06:22:04 PM 35.1061 -101.4897 163° South 479 551 39,000  Level Albuquerque Center
Wed 06:23:06 PM 34.9553 -101.4458 167° South 468 539 39,000  Level Albuquerque Center
Wed 06:24:08 PM 34.8217 -101.4069 167° South 468 539 39,000  Level Albuquerque Center
Wed 06:25:10 PM 34.6953 -101.3711 167° South 467 537 39,000  Level Albuquerque Center
Wed 06:26:12 PM 34.5708 -101.3356 167° South 462 532 39,000  Level Albuquerque Center
Wed 06:27:14 PM 34.4456 -101.2983 166° South 463 533 39,000  Level Albuquerque Center
Wed 06:28:15 PM 34.3192 -101.2658 168° South 464 534 39,000  Level Albuquerque Center
Wed 06:29:17 PM 34.1942 -101.2364 169° South 459 528 39,000  Level Albuquerque Center
Wed 06:30:19 PM 34.0442 -101.2553 186° South 451 519 39,000  Level Albuquerque Center
Wed 06:31:21 PM 33.9211 -101.2750 188° South 446 513 39,000  Level Albuquerque Center
Wed 06:32:23 PM 33.8161 -101.2892 186° South 447 514 39,000  Level Albuquerque Center
Wed 06:33:30 PM 33.6683 -101.3067 186° South 451 519 39,000  Level Fort Worth Center
Wed 06:34:30 PM 33.5300 -101.3256 186° South 451 519 39,000  Level Fort Worth Center
Wed 06:35:30 PM 33.4208 -101.3406 187° South 451 519 39,000  Level Fort Worth Center
Wed 06:36:30 PM 33.2806 -101.3592 186° South 451 519 39,000  Level Fort Worth Center
Wed 06:37:30 PM 33.1714 -101.3742 187° South 446 513 39,000  Level Fort Worth Center
Wed 06:38:30 PM 33.0331 -101.3953 187° South 453 521 39,000  Level Fort Worth Center
Wed 06:39:30 PM 32.9114 -101.4122 187° South 446 513 39,000  Level Fort Worth Center
Wed 06:40:30 PM 32.7878 -101.4314 187° South 451 519 39,000  Level Fort Worth Center
Wed 06:41:30 PM 32.6689 -101.4286 179° South 441 507 39,000  Level Fort Worth Center
Wed 06:42:30 PM 32.5525 -101.3469 149° Southeast 433 498 39,000  Level Fort Worth Center
Wed 06:43:30 PM 32.4422 -101.2658 148° Southeast 449 517 39,000  Level Fort Worth Center
Wed 06:44:30 PM 32.3319 -101.1847 148° Southeast 461 531 39,000  Level Fort Worth Center
Wed 06:45:30 PM 32.2239 -101.0994 146° Southeast 473 544 39,000  Level Fort Worth Center
Wed 06:46:30 PM 32.1158 -101.0117 145° Southeast 473 544 39,000  Level Fort Worth Center
Wed 06:47:30 PM 32.0033 -100.9336 150° Southeast 473 544 39,000  Level Fort Worth Center
Wed 06:48:30 PM 31.9011 -100.8467 144° Southeast 466 536 39,000  Level Fort Worth Center
Wed 06:49:30 PM 31.7886 -100.7617 147° Southeast 461 531 39,000  Level Fort Worth Center
Wed 06:50:30 PM 31.6822 -100.6822 148° Southeast 456 525 39,000  Level Fort Worth Center
Wed 06:51:24 PM 31.5883 -100.6142 148° Southeast 454 522 39,000  Level Houston Center
Wed 06:52:25 PM 31.4814 -100.5342 147° Southeast 456 525 39,000  Level Houston Center
Wed 06:53:27 PM 31.3747 -100.4539 147° Southeast 456 525 39,000  Level Houston Center
Wed 06:54:29 PM 31.2708 -100.3683 145° Southeast 456 525 39,000  Level Houston Center
Wed 06:55:31 PM 31.1669 -100.2836 145° Southeast 456 525 39,000  Level Houston Center
Wed 06:56:33 PM 31.0639 -100.1981 145° Southeast 455 524 39,000  Level Houston Center
Wed 06:57:35 PM 30.9597 -100.1117 145° Southeast 456 525 39,000  Level Houston Center
Wed 06:58:36 PM 30.8292 -100.0189 149° Southeast 459 528 39,000  Level Houston Center
Wed 06:59:38 PM 30.7100 -99.9686 160° South 457 526 39,000  Level Houston Center
Wed 07:00:40 PM 30.5889 -99.9222 162° South 456 525 39,000  Level Houston Center
Wed 07:01:42 PM 30.4664 -99.8800 163° South 457 526 39,000  Level Houston Center
Wed 07:02:44 PM 30.3439 -99.8444 166° South 453 521 39,000  Level Houston Center
Wed 07:03:46 PM 30.2292 -99.7819 155° Southeast 454 522 39,000  Level Houston Center
Wed 07:04:47 PM 30.1231 -99.7017 147° Southeast 453 521 39,000  Level Houston Center
Wed 07:05:49 PM 30.0275 -99.6072 139° Southeast 451 519 39,000  Level Houston Center
Wed 07:06:51 PM 29.9133 -99.4936 139° Southeast 451 519 39,000  Level Houston Center
Wed 07:07:53 PM 29.8172 -99.3997 140° Southeast 453 521 39,000  Level Houston Center
Wed 07:08:54 PM 29.7178 -99.3058 141° Southeast 449 517 39,000  Level Houston Center
Wed 07:09:56 PM 29.6147 -99.2056 140° Southeast 451 519 39,000  Level Houston Center
Wed 07:10:58 PM 29.5186 -99.1128 140° Southeast 452 520 39,000  Level Houston Center
Wed 07:12:00 PM 29.4142 -99.0133 140° Southeast 452 520 39,000  Level Houston Center
Wed 07:13:02 PM 29.3178 -98.9211 140° Southeast 452 520 39,000  Level Houston Center
Wed 07:14:03 PM 29.2211 -98.8283 140° Southeast 455 524 39,000  Level Houston Center
Wed 07:15:05 PM 29.1169 -98.7292 140° Southeast 454 522 39,000  Level Houston Center
Wed 07:16:07 PM 29.0203 -98.6367 140° Southeast 455 524 39,000 -97 Level Houston Center
Wed 07:17:09 PM 28.9308 -98.5236 132° Southeast 451 519 38,800 -532 Descending Houston Center
Wed 07:18:11 PM 28.9064 -98.3925 102° East 428 493 37,900 -878 Descending Houston Center
Wed 07:19:12 PM 28.8911 -98.2528 97° East 415 478 37,000 -439 Descending Houston Center
Wed 07:20:14 PM 28.8839 -98.1164 93° East 428 493 37,000  Level Houston Center
Wed 07:21:16 PM 28.8772 -98.0008 94° East 434 499 37,000  Level Houston Center
Wed 07:22:18 PM 28.8669 -97.8336 94° East 442 509 37,000  Level Houston Center
Wed 07:23:20 PM 28.8583 -97.6981 94° East 434 499 37,000 -585 Level Houston Center
Wed 07:24:21 PM 28.8500 -97.5606 94° East 436 502 35,800 -1,366 Descending Houston Center
Wed 07:25:23 PM 28.8406 -97.4228 94° East 438 504 34,200 -1,452 Descending Houston Center
Wed 07:26:25 PM 28.8317 -97.2850 94° East 439 505 32,800 -1,984 Descending Houston Center
Wed 07:27:27 PM 28.8503 -97.1536 81° East 428 493 30,100 -3,024 Descending Houston Center
Wed 07:28:28 PM 28.9103 -97.0050 65° Northeast 430 495 26,600 -3,220 Descending Houston Center
Wed 07:29:30 PM 28.9611 -96.8808 65° Northeast 434 499 23,500 -2,661 Descending Houston Center
Wed 07:30:32 PM 29.0119 -96.7589 64° Northeast 430 495 21,100 -2,098 Descending Houston Center
Wed 07:31:33 PM 29.0589 -96.6419 65° Northeast 414 476 19,200 -1,951 Descending Houston Center
Wed 07:32:35 PM 29.1053 -96.5286 65° Northeast 400 460 17,100 -2,274 Descending Houston Center
Wed 07:33:37 PM 29.1597 -96.3947 65° Northeast 392 451 14,500 -2,375 Descending Houston Center
Wed 07:34:11 PM 29.1772 -96.3514 65° Northeast 384 442 13,300 -1,859 Descending Houston Center
Wed 07:34:48 PM 29.2097 -96.2639 67° East 386 444 12,300 -944 Descending Houston Center
Wed 07:35:40 PM 29.2472 -96.1769 64° Northeast 376 433 11,900 -211 Descending Houston Center
Wed 07:36:42 PM 29.2833 -96.0861 65° Northeast 324 373 11,900 48 Level Houston Center
Wed 07:37:44 PM 29.3200 -95.9836 68° East 302 348 12,000 -780 Climbing Houston Center
Wed 07:38:45 PM 29.3422 -95.8953 74° East 301 346 10,300 -1,426 Descending Houston Center
Wed 07:39:46 PM 29.3675 -95.8103 71° East 266 306 9,100 -774 Descending Houston Center
Wed 07:40:49 PM 29.3933 -95.7289 70° East 279 321 8,700 -1,131 Descending Houston Center
Wed 07:41:48 PM 29.4211 -95.6339 71° East 299 344 6,800 -1,805 Descending Houston Center
Wed 07:42:42 PM 29.4453 -95.5519 71° East 290 334 5,300 -1,571 Descending Houston Center
Wed 07:43:54 PM 29.4728 -95.4664 70° East 284 327 3,500 -1,218 Descending Houston Center
Wed 07:44:55 PM 29.5353 -95.3989 43° Northeast 260 299 2,600 -927 Descending Houston Center
Wed 07:45:57 PM 29.5858 -95.3431 44° Northeast 235 270 1,600 -1,024 Descending Houston Center
Wed 07:46:58 PM 29.6261 -95.3022 41° Northeast 146 168 500 -732 Descending Houston Center
Wed 07:48:00 PM 29.6531 -95.2678 48° Northeast 193 222 100 -387 Descending Houston Center
Wed 07:49:00 PM 29.6454 -95.2789 115° Southeast  Level Estimated

Login

Don't have an account? Register now (free) for customized features, flight alerts, and more!